sensor_id;sensor_type;location;lat;lon;timestamp;pressure;altitude;pressure_sealevel;temperature;humidity
19777;BME280;10047;42.490;26.012;2022-12-29T00:02:19;100863.44;;;5.15;100.00
19777;BME280;10047;42.490;26.012;2022-12-29T00:04:44;100784.19;;;4.74;100.00
19777;BME280;10047;42.490;26.012;2022-12-29T00:07:10;100870.41;;;5.45;100.00
19777;BME280;10047;42.490;26.012;2022-12-29T00:09:36;100765.88;;;4.98;100.00
19777;BME280;10047;42.490;26.012;2022-12-29T00:12:03;100868.13;;;5.83;100.00
19777;BME280;10047;42.490;26.012;2022-12-29T00:14:29;100794.41;;;4.92;100.00
19777;BME280;10047;42.490;26.012;2022-12-29T00:17:13;100857.88;;;5.54;100.00
19777;BME280;10047;42.490;26.012;2022-12-29T00:19:39;100845.19;;;5.41;100.00
19777;BME280;10047;42.490;26.012;2022-12-29T00:22:24;100782.75;;;5.06;100.00
19777;BME280;10047;42.490;26.012;2022-12-29T00:25:09;100797.13;;;5.16;100.00
19777;BME280;10047;42.490;26.012;2022-12-29T00:27:53;100848.56;;;5.49;100.00
19777;BME280;10047;42.490;26.012;2022-12-29T00:30:37;100844.38;;;5.51;100.00
19777;BME280;10047;42.490;26.012;2022-12-29T00:33:25;100788.69;;;5.14;100.00
19777;BME280;10047;42.490;26.012;2022-12-29T00:36:16;100866.25;;;5.55;100.00
19777;BME280;10047;42.490;26.012;2022-12-29T00:38:47;100789.41;;;5.00;100.00
19777;BME280;10047;42.490;26.012;2022-12-29T00:41:32;100811.44;;;5.20;100.00
19777;BME280;10047;42.490;26.012;2022-12-29T00:44:16;100856.94;;;5.43;100.00
19777;BME280;10047;42.490;26.012;2022-12-29T00:46:43;100825.75;;;5.27;100.00
19777;BME280;10047;42.490;26.012;2022-12-29T00:49:11;100795.16;;;4.84;100.00
19777;BME280;10047;42.490;26.012;2022-12-29T00:52:01;100786.81;;;4.88;100.00
19777;BME280;10047;42.490;26.012;2022-12-29T00:54:28;100868.00;;;5.62;100.00
19777;BME280;10047;42.490;26.012;2022-12-29T00:56:54;100805.53;;;5.18;100.00
19777;BME280;10047;42.490;26.012;2022-12-29T00:59:20;100851.97;;;5.55;100.00
19777;BME280;10047;42.490;26.012;2022-12-29T01:01:46;100869.63;;;5.54;100.00
19777;BME280;10047;42.490;26.012;2022-12-29T01:04:12;100868.78;;;5.52;100.00
19777;BME280;10047;42.490;26.012;2022-12-29T01:06:39;100730.63;;;4.98;100.00
19777;BME280;10047;42.490;26.012;2022-12-29T01:09:05;100785.31;;;5.12;100.00
19777;BME280;10047;42.490;26.012;2022-12-29T01:11:49;100811.59;;;5.48;100.00
19777;BME280;10047;42.490;26.012;2022-12-29T01:14:16;100781.91;;;5.07;100.00
19777;BME280;10047;42.490;26.012;2022-12-29T01:16:41;100843.66;;;5.73;100.00
19777;BME280;10047;42.490;26.012;2022-12-29T01:19:06;100857.84;;;5.53;100.00
19777;BME280;10047;42.490;26.012;2022-12-29T01:21:32;100709.47;;;4.73;100.00
19777;BME280;10047;42.490;26.012;2022-12-29T01:23:58;100849.56;;;5.70;100.00
19777;BME280;10047;42.490;26.012;2022-12-29T01:26:23;100837.75;;;5.65;100.00
19777;BME280;10047;42.490;26.012;2022-12-29T01:28:51;100802.28;;;5.35;100.00
19777;BME280;10047;42.490;26.012;2022-12-29T01:31:16;100771.88;;;5.13;100.00
19777;BME280;10047;42.490;26.012;2022-12-29T01:33:43;100852.88;;;5.63;100.00
19777;BME280;10047;42.490;26.012;2022-12-29T01:36:11;100858.00;;;5.77;100.00
19777;BME280;10047;42.490;26.012;2022-12-29T01:38:38;100792.06;;;5.19;100.00
19777;BME280;10047;42.490;26.012;2022-12-29T01:41:05;100769.22;;;4.94;100.00
19777;BME280;10047;42.490;26.012;2022-12-29T01:46:30;100845.25;;;5.54;100.00
19777;BME280;10047;42.490;26.012;2022-12-29T01:49:08;100842.00;;;5.73;100.00
19777;BME280;10047;42.490;26.012;2022-12-29T01:51:39;100823.59;;;5.85;100.00
19777;BME280;10047;42.490;26.012;2022-12-29T01:54:09;100736.66;;;5.22;100.00
19777;BME280;10047;42.490;26.012;2022-12-29T01:56:36;100826.88;;;5.70;100.00
19777;BME280;10047;42.490;26.012;2022-12-29T01:59:10;100787.19;;;5.41;100.00
19777;BME280;10047;42.490;26.012;2022-12-29T02:01:37;100849.44;;;5.54;100.00
19777;BME280;10047;42.490;26.012;2022-12-29T02:04:03;100756.91;;;5.36;100.00
19777;BME280;10047;42.490;26.012;2022-12-29T02:06:38;100750.94;;;5.20;100.00
19777;BME280;10047;42.490;26.012;2022-12-29T02:09:05;100690.28;;;4.89;100.00
19777;BME280;10047;42.490;26.012;2022-12-29T02:11:31;100765.13;;;5.06;100.00
19777;BME280;10047;42.490;26.012;2022-12-29T02:13:57;100843.47;;;5.41;100.00
19777;BME280;10047;42.490;26.012;2022-12-29T02:22:34;100823.34;;;5.43;100.00
19777;BME280;10047;42.490;26.012;2022-12-29T02:36:15;100810.75;;;5.47;100.00
19777;BME280;10047;42.490;26.012;2022-12-29T02:38:56;100745.00;;;5.15;100.00
19777;BME280;10047;42.490;26.012;2022-12-29T02:44:28;100729.94;;;5.20;100.00
19777;BME280;10047;42.490;26.012;2022-12-29T02:49:54;100704.69;;;5.17;100.00
19777;BME280;10047;42.490;26.012;2022-12-29T02:52:29;100809.81;;;5.32;100.00
19777;BME280;10047;42.490;26.012;2022-12-29T02:54:58;100787.31;;;5.71;100.00
19777;BME280;10047;42.490;26.012;2022-12-29T03:00:10;100794.00;;;5.60;100.00
19777;BME280;10047;42.490;26.012;2022-12-29T03:02:54;100783.94;;;5.63;100.00
19777;BME280;10047;42.490;26.012;2022-12-29T03:08:34;100781.19;;;5.22;100.00
19777;BME280;10047;42.490;26.012;2022-12-29T03:11:05;100780.47;;;5.43;100.00
19777;BME280;10047;42.490;26.012;2022-12-29T03:14:29;100779.47;;;5.16;100.00
19777;BME280;10047;42.490;26.012;2022-12-29T03:19:52;100701.97;;;4.79;100.00
19777;BME280;10047;42.490;26.012;2022-12-29T03:22:25;100699.50;;;4.87;100.00
19777;BME280;10047;42.490;26.012;2022-12-29T03:25:23;100701.88;;;4.69;100.00
19777;BME280;10047;42.490;26.012;2022-12-29T03:27:53;100767.81;;;5.32;100.00
19777;BME280;10047;42.490;26.012;2022-12-29T03:30:21;100777.03;;;5.33;100.00
19777;BME280;10047;42.490;26.012;2022-12-29T03:32:55;100691.94;;;4.91;100.00
19777;BME280;10047;42.490;26.012;2022-12-29T03:35:25;100749.16;;;5.04;100.00
19777;BME280;10047;42.490;26.012;2022-12-29T03:37:58;100692.84;;;4.96;100.00
19777;BME280;10047;42.490;26.012;2022-12-29T03:40:26;100712.94;;;4.90;100.00
19777;BME280;10047;42.490;26.012;2022-12-29T03:42:52;100770.22;;;5.15;100.00
19777;BME280;10047;42.490;26.012;2022-12-29T03:45:19;100761.75;;;5.07;100.00
19777;BME280;10047;42.490;26.012;2022-12-29T03:47:44;100674.19;;;4.70;100.00
19777;BME280;10047;42.490;26.012;2022-12-29T03:50:12;100781.91;;;5.04;100.00
19777;BME280;10047;42.490;26.012;2022-12-29T03:52:37;100732.31;;;5.02;100.00
19777;BME280;10047;42.490;26.012;2022-12-29T03:55:03;100713.66;;;4.71;100.00
19777;BME280;10047;42.490;26.012;2022-12-29T03:57:28;100765.16;;;5.17;100.00
19777;BME280;10047;42.490;26.012;2022-12-29T03:59:54;100763.41;;;5.05;100.00
19777;BME280;10047;42.490;26.012;2022-12-29T04:02:19;100774.09;;;4.71;100.00
19777;BME280;10047;42.490;26.012;2022-12-29T04:04:45;100680.84;;;4.59;100.00
19777;BME280;10047;42.490;26.012;2022-12-29T04:07:10;100788.66;;;5.08;100.00
19777;BME280;10047;42.490;26.012;2022-12-29T04:09:35;100780.09;;;4.90;100.00
19777;BME280;10047;42.490;26.012;2022-12-29T04:12:01;100780.97;;;4.92;100.00
19777;BME280;10047;42.490;26.012;2022-12-29T04:14:26;100644.09;;;3.80;100.00
19777;BME280;10047;42.490;26.012;2022-12-29T04:16:52;100780.81;;;4.72;100.00
19777;BME280;10047;42.490;26.012;2022-12-29T04:19:17;100773.94;;;4.56;100.00
19777;BME280;10047;42.490;26.012;2022-12-29T04:21:42;100694.03;;;4.31;100.00
19777;BME280;10047;42.490;26.012;2022-12-29T04:24:08;100787.38;;;4.58;100.00
19777;BME280;10047;42.490;26.012;2022-12-29T04:26:33;100767.25;;;4.58;100.00
19777;BME280;10047;42.490;26.012;2022-12-29T04:28:59;100712.19;;;4.04;100.00
19777;BME280;10047;42.490;26.012;2022-12-29T04:31:24;100709.72;;;4.06;100.00
19777;BME280;10047;42.490;26.012;2022-12-29T04:33:50;100694.59;;;4.04;100.00
19777;BME280;10047;42.490;26.012;2022-12-29T04:36:15;100777.13;;;4.35;100.00
19777;BME280;10047;42.490;26.012;2022-12-29T04:38:41;100789.00;;;4.52;100.00
19777;BME280;10047;42.490;26.012;2022-12-29T04:41:06;100739.13;;;4.10;100.00
19777;BME280;10047;42.490;26.012;2022-12-29T04:43:32;100757.00;;;4.38;100.00
19777;BME280;10047;42.490;26.012;2022-12-29T04:45:57;100754.59;;;4.48;100.00
19777;BME280;10047;42.490;26.012;2022-12-29T04:48:23;100720.53;;;4.00;100.00
19777;BME280;10047;42.490;26.012;2022-12-29T04:50:49;100811.50;;;4.38;100.00
19777;BME280;10047;42.490;26.012;2022-12-29T04:53:16;100738.84;;;3.86;100.00
19777;BME280;10047;42.490;26.012;2022-12-29T04:55:41;100654.53;;;3.38;100.00
19777;BME280;10047;42.490;26.012;2022-12-29T04:58:07;100796.94;;;4.07;100.00
19777;BME280;10047;42.490;26.012;2022-12-29T05:00:32;100673.69;;;3.30;100.00
19777;BME280;10047;42.490;26.012;2022-12-29T05:02:58;100795.41;;;4.19;100.00
19777;BME280;10047;42.490;26.012;2022-12-29T05:05:24;100700.94;;;3.71;100.00
19777;BME280;10047;42.490;26.012;2022-12-29T05:07:49;100770.97;;;4.12;100.00
19777;BME280;10047;42.490;26.012;2022-12-29T05:10:15;100794.53;;;4.19;100.00
19777;BME280;10047;42.490;26.012;2022-12-29T05:12:40;100798.66;;;4.11;100.00
19777;BME280;10047;42.490;26.012;2022-12-29T05:15:07;100718.81;;;3.95;100.00
19777;BME280;10047;42.490;26.012;2022-12-29T05:20:45;100775.19;;;4.13;100.00
19777;BME280;10047;42.490;26.012;2022-12-29T05:23:11;100728.66;;;3.74;100.00
19777;BME280;10047;42.490;26.012;2022-12-29T05:25:36;100772.81;;;4.27;100.00
19777;BME280;10047;42.490;26.012;2022-12-29T05:28:06;100708.44;;;3.66;100.00
19777;BME280;10047;42.490;26.012;2022-12-29T05:30:31;100722.38;;;3.43;100.00
19777;BME280;10047;42.490;26.012;2022-12-29T05:32:57;100779.38;;;4.10;100.00
19777;BME280;10047;42.490;26.012;2022-12-29T05:35:22;100780.03;;;3.98;100.00
19777;BME280;10047;42.490;26.012;2022-12-29T05:37:48;100696.31;;;3.32;100.00
19777;BME280;10047;42.490;26.012;2022-12-29T05:40:13;100659.69;;;2.88;100.00
19777;BME280;10047;42.490;26.012;2022-12-29T05:42:39;100715.00;;;3.53;100.00
19777;BME280;10047;42.490;26.012;2022-12-29T05:45:05;100713.03;;;3.31;100.00
19777;BME280;10047;42.490;26.012;2022-12-29T05:47:32;100800.72;;;3.75;100.00
19777;BME280;10047;42.490;26.012;2022-12-29T05:49:58;100726.31;;;3.23;100.00
19777;BME280;10047;42.490;26.012;2022-12-29T05:52:42;100800.84;;;3.82;100.00
19777;BME280;10047;42.490;26.012;2022-12-29T05:55:07;100730.94;;;2.96;100.00
19777;BME280;10047;42.490;26.012;2022-12-29T05:57:33;100800.53;;;3.61;100.00
19777;BME280;10047;42.490;26.012;2022-12-29T05:59:58;100715.28;;;3.10;100.00
19777;BME280;10047;42.490;26.012;2022-12-29T06:02:23;100742.41;;;3.35;100.00
19777;BME280;10047;42.490;26.012;2022-12-29T06:04:49;100731.41;;;3.29;100.00
19777;BME280;10047;42.490;26.012;2022-12-29T06:07:14;100783.03;;;3.69;100.00
19777;BME280;10047;42.490;26.012;2022-12-29T06:09:40;100804.22;;;3.84;100.00
19777;BME280;10047;42.490;26.012;2022-12-29T06:12:05;100764.25;;;3.41;100.00
19777;BME280;10047;42.490;26.012;2022-12-29T06:14:31;100800.72;;;3.73;100.00
19777;BME280;10047;42.490;26.012;2022-12-29T06:16:56;100794.81;;;3.71;100.00
19777;BME280;10047;42.490;26.012;2022-12-29T06:19:22;100748.50;;;3.53;100.00
19777;BME280;10047;42.490;26.012;2022-12-29T06:21:47;100794.72;;;3.64;100.00
19777;BME280;10047;42.490;26.012;2022-12-29T06:24:13;100790.81;;;3.85;100.00
19777;BME280;10047;42.490;26.012;2022-12-29T06:26:38;100725.69;;;3.37;100.00
19777;BME280;10047;42.490;26.012;2022-12-29T06:29:05;100766.50;;;3.84;100.00
19777;BME280;10047;42.490;26.012;2022-12-29T06:31:33;100725.47;;;3.90;100.00
19777;BME280;10047;42.490;26.012;2022-12-29T06:33:58;100690.22;;;3.84;100.00
19777;BME280;10047;42.490;26.012;2022-12-29T06:36:24;100798.00;;;4.27;100.00
19777;BME280;10047;42.490;26.012;2022-12-29T06:38:49;100791.63;;;4.64;100.00
19777;BME280;10047;42.490;26.012;2022-12-29T06:41:18;100782.84;;;5.20;100.00
19777;BME280;10047;42.490;26.012;2022-12-29T06:43:43;100695.81;;;5.96;100.00
19777;BME280;10047;42.490;26.012;2022-12-29T06:46:08;100712.47;;;5.59;100.00
19777;BME280;10047;42.490;26.012;2022-12-29T06:48:34;100780.03;;;7.03;100.00
19777;BME280;10047;42.490;26.012;2022-12-29T06:50:59;100779.16;;;7.42;100.00
19777;BME280;10047;42.490;26.012;2022-12-29T06:53:24;100783.38;;;7.37;100.00
19777;BME280;10047;42.490;26.012;2022-12-29T06:55:50;100768.94;;;7.75;100.00
19777;BME280;10047;42.490;26.012;2022-12-29T06:58:15;100660.38;;;7.18;100.00
19777;BME280;10047;42.490;26.012;2022-12-29T07:00:41;100755.56;;;7.30;100.00
19777;BME280;10047;42.490;26.012;2022-12-29T07:03:06;100744.34;;;8.02;100.00
19777;BME280;10047;42.490;26.012;2022-12-29T07:05:32;100767.22;;;7.79;100.00
19777;BME280;10047;42.490;26.012;2022-12-29T07:07:58;100785.00;;;6.05;100.00
19777;BME280;10047;42.490;26.012;2022-12-29T07:10:24;100853.13;;;6.05;100.00
19777;BME280;10047;42.490;26.012;2022-12-29T07:12:49;100864.94;;;6.08;100.00
19777;BME280;10047;42.490;26.012;2022-12-29T07:15:16;100861.56;;;6.09;100.00
19777;BME280;10047;42.490;26.012;2022-12-29T07:17:41;100832.19;;;6.35;100.00
19777;BME280;10047;42.490;26.012;2022-12-29T07:20:07;100804.31;;;5.99;100.00
19777;BME280;10047;42.490;26.012;2022-12-29T07:22:33;100779.91;;;5.93;100.00
19777;BME280;10047;42.490;26.012;2022-12-29T07:24:58;100784.09;;;5.94;100.00
19777;BME280;10047;42.490;26.012;2022-12-29T07:27:24;100866.75;;;6.48;100.00
19777;BME280;10047;42.490;26.012;2022-12-29T07:29:49;100867.56;;;6.43;100.00
19777;BME280;10047;42.490;26.012;2022-12-29T07:32:14;100800.22;;;6.30;100.00
19777;BME280;10047;42.490;26.012;2022-12-29T07:34:40;100814.53;;;6.34;100.00
19777;BME280;10047;42.490;26.012;2022-12-29T07:37:06;100791.75;;;6.17;100.00
19777;BME280;10047;42.490;26.012;2022-12-29T07:39:31;100794.25;;;6.05;100.00
19777;BME280;10047;42.490;26.012;2022-12-29T07:41:57;100806.03;;;6.12;100.00
19777;BME280;10047;42.490;26.012;2022-12-29T07:44:22;100865.13;;;6.68;100.00
19777;BME280;10047;42.490;26.012;2022-12-29T07:46:47;100781.69;;;6.46;100.00
19777;BME280;10047;42.490;26.012;2022-12-29T07:49:13;100799.34;;;6.32;100.00
19777;BME280;10047;42.490;26.012;2022-12-29T07:51:38;100855.06;;;7.03;100.00
19777;BME280;10047;42.490;26.012;2022-12-29T07:54:04;100774.16;;;7.18;100.00
19777;BME280;10047;42.490;26.012;2022-12-29T07:56:29;100823.41;;;8.58;100.00
19777;BME280;10047;42.490;26.012;2022-12-29T07:58:54;100739.25;;;9.15;100.00
19777;BME280;10047;42.490;26.012;2022-12-29T08:01:20;100801.63;;;8.31;100.00
19777;BME280;10047;42.490;26.012;2022-12-29T08:03:46;100761.47;;;7.35;100.00
19777;BME280;10047;42.490;26.012;2022-12-29T08:06:13;100811.19;;;6.38;100.00
19777;BME280;10047;42.490;26.012;2022-12-29T08:08:38;100771.53;;;6.12;100.00
19777;BME280;10047;42.490;26.012;2022-12-29T08:11:03;100807.84;;;6.57;100.00
19777;BME280;10047;42.490;26.012;2022-12-29T08:13:29;100794.34;;;6.56;100.00
19777;BME280;10047;42.490;26.012;2022-12-29T08:15:54;100866.81;;;6.69;100.00
19777;BME280;10047;42.490;26.012;2022-12-29T08:18:20;100812.06;;;6.65;100.00
19777;BME280;10047;42.490;26.012;2022-12-29T08:20:45;100886.22;;;7.28;100.00
19777;BME280;10047;42.490;26.012;2022-12-29T08:23:11;100801.78;;;5.99;100.00
19777;BME280;10047;42.490;26.012;2022-12-29T08:25:36;100790.06;;;6.10;100.00
19777;BME280;10047;42.490;26.012;2022-12-29T08:28:02;100859.22;;;6.74;100.00
19777;BME280;10047;42.490;26.012;2022-12-29T08:30:27;100816.22;;;6.33;100.00
19777;BME280;10047;42.490;26.012;2022-12-29T08:32:52;100871.03;;;6.76;100.00
19777;BME280;10047;42.490;26.012;2022-12-29T08:35:18;100863.44;;;6.69;100.00
19777;BME280;10047;42.490;26.012;2022-12-29T08:37:43;100873.59;;;7.07;100.00
19777;BME280;10047;42.490;26.012;2022-12-29T08:40:09;100857.56;;;6.95;100.00
19777;BME280;10047;42.490;26.012;2022-12-29T08:42:34;100839.91;;;7.03;100.00
19777;BME280;10047;42.490;26.012;2022-12-29T08:45:00;100831.47;;;7.07;100.00
19777;BME280;10047;42.490;26.012;2022-12-29T08:47:26;100780.00;;;6.31;100.00
19777;BME280;10047;42.490;26.012;2022-12-29T08:49:52;100801.06;;;6.48;100.00
19777;BME280;10047;42.490;26.012;2022-12-29T08:52:18;100829.75;;;6.65;100.00
19777;BME280;10047;42.490;26.012;2022-12-29T08:54:43;100811.22;;;6.77;100.00
19777;BME280;10047;42.490;26.012;2022-12-29T08:57:09;100759.00;;;6.83;100.00
19777;BME280;10047;42.490;26.012;2022-12-29T08:59:34;100821.34;;;6.99;100.00
19777;BME280;10047;42.490;26.012;2022-12-29T09:01:59;100699.19;;;6.78;100.00
19777;BME280;10047;42.490;26.012;2022-12-29T09:04:27;100819.66;;;7.29;100.00
19777;BME280;10047;42.490;26.012;2022-12-29T09:06:52;100764.03;;;7.14;100.00
19777;BME280;10047;42.490;26.012;2022-12-29T09:09:18;100746.28;;;7.33;100.00
19777;BME280;10047;42.490;26.012;2022-12-29T09:11:44;100832.97;;;7.93;100.00
19777;BME280;10047;42.490;26.012;2022-12-29T09:14:09;100760.69;;;6.87;100.00
19777;BME280;10047;42.490;26.012;2022-12-29T09:16:35;100758.13;;;7.18;100.00
19777;BME280;10047;42.490;26.012;2022-12-29T09:19:01;100759.78;;;7.32;100.00
19777;BME280;10047;42.490;26.012;2022-12-29T09:21:27;100812.00;;;7.62;100.00
19777;BME280;10047;42.490;26.012;2022-12-29T09:23:52;100825.47;;;7.61;100.00
19777;BME280;10047;42.490;26.012;2022-12-29T09:26:18;100817.09;;;7.54;100.00
19777;BME280;10047;42.490;26.012;2022-12-29T09:28:43;100798.50;;;7.58;100.00
19777;BME280;10047;42.490;26.012;2022-12-29T09:31:09;100783.25;;;7.79;100.00
19777;BME280;10047;42.490;26.012;2022-12-29T09:33:35;100805.19;;;7.79;100.00
19777;BME280;10047;42.490;26.012;2022-12-29T09:36:01;100730.19;;;7.57;100.00
19777;BME280;10047;42.490;26.012;2022-12-29T09:38:27;100794.91;;;8.12;100.00
19777;BME280;10047;42.490;26.012;2022-12-29T09:41:18;100799.94;;;8.21;100.00
19777;BME280;10047;42.490;26.012;2022-12-29T09:46:23;100796.50;;;8.34;100.00
19777;BME280;10047;42.490;26.012;2022-12-29T09:49:04;100761.06;;;8.33;100.00
19777;BME280;10047;42.490;26.012;2022-12-29T09:51:33;100708.94;;;7.96;100.00
19777;BME280;10047;42.490;26.012;2022-12-29T09:57:00;100794.75;;;8.48;100.00
19777;BME280;10047;42.490;26.012;2022-12-29T09:59:36;100781.28;;;8.39;100.00
19777;BME280;10047;42.490;26.012;2022-12-29T10:04:41;100781.03;;;8.77;100.00
19777;BME280;10047;42.490;26.012;2022-12-29T10:07:29;100773.81;;;9.25;100.00
19777;BME280;10047;42.490;26.012;2022-12-29T10:10:02;100791.69;;;9.15;100.00
19777;BME280;10047;42.490;26.012;2022-12-29T10:17:44;100691.41;;;8.85;100.00
19777;BME280;10047;42.490;26.012;2022-12-29T10:20:33;100762.03;;;9.23;100.00
19777;BME280;10047;42.490;26.012;2022-12-29T10:23:24;100796.16;;;8.89;100.00
19777;BME280;10047;42.490;26.012;2022-12-29T10:25:54;100780.13;;;8.84;100.00
19777;BME280;10047;42.490;26.012;2022-12-29T10:28:33;100745.56;;;8.73;100.00
19777;BME280;10047;42.490;26.012;2022-12-29T10:30:59;100757.84;;;9.19;100.00
19777;BME280;10047;42.490;26.012;2022-12-29T10:33:34;100777.41;;;9.05;100.00
19777;BME280;10047;42.490;26.012;2022-12-29T10:36:09;100789.94;;;9.20;100.00
19777;BME280;10047;42.490;26.012;2022-12-29T10:42:24;100715.81;;;8.92;100.00
19777;BME280;10047;42.490;26.012;2022-12-29T10:44:31;100700.53;;;9.00;100.00
19777;BME280;10047;42.490;26.012;2022-12-29T10:47:04;100784.47;;;9.60;100.00
19777;BME280;10047;42.490;26.012;2022-12-29T10:49:32;100710.63;;;9.04;100.00
19777;BME280;10047;42.490;26.012;2022-12-29T10:52:02;100720.06;;;8.90;100.00
19777;BME280;10047;42.490;26.012;2022-12-29T10:57:18;100641.66;;;8.70;100.00
19777;BME280;10047;42.490;26.012;2022-12-29T10:59:46;100782.66;;;9.69;100.00
19777;BME280;10047;42.490;26.012;2022-12-29T11:02:18;100782.88;;;9.50;100.00
19777;BME280;10047;42.490;26.012;2022-12-29T11:05:10;100777.50;;;9.78;100.00
19777;BME280;10047;42.490;26.012;2022-12-29T11:07:41;100780.34;;;9.50;100.00
19777;BME280;10047;42.490;26.012;2022-12-29T11:10:35;100780.03;;;9.78;100.00
19777;BME280;10047;42.490;26.012;2022-12-29T11:13:14;100680.31;;;8.95;100.00
19777;BME280;10047;42.490;26.012;2022-12-29T11:15:42;100696.03;;;9.26;100.00
19777;BME280;10047;42.490;26.012;2022-12-29T11:20:44;100702.28;;;9.68;100.00
19777;BME280;10047;42.490;26.012;2022-12-29T11:23:36;100761.78;;;10.15;100.00
19777;BME280;10047;42.490;26.012;2022-12-29T11:26:12;100770.84;;;10.33;100.00
19777;BME280;10047;42.490;26.012;2022-12-29T11:28:40;100689.47;;;9.77;100.00
19777;BME280;10047;42.490;26.012;2022-12-29T11:31:06;100781.94;;;10.29;100.00
19777;BME280;10047;42.490;26.012;2022-12-29T11:33:34;100702.81;;;9.91;100.00
19777;BME280;10047;42.490;26.012;2022-12-29T11:36:11;100773.44;;;10.31;100.00
19777;BME280;10047;42.490;26.012;2022-12-29T11:38:39;100757.94;;;10.46;100.00
19777;BME280;10047;42.490;26.012;2022-12-29T11:41:06;100764.09;;;10.32;100.00
19777;BME280;10047;42.490;26.012;2022-12-29T11:43:41;100798.69;;;10.43;100.00
19777;BME280;10047;42.490;26.012;2022-12-29T11:46:14;100739.09;;;10.02;100.00
19777;BME280;10047;42.490;26.012;2022-12-29T11:48:42;100751.50;;;10.24;100.00
19777;BME280;10047;42.490;26.012;2022-12-29T11:51:08;100828.06;;;10.61;100.00
19777;BME280;10047;42.490;26.012;2022-12-29T11:53:47;100803.84;;;10.37;100.00
19777;BME280;10047;42.490;26.012;2022-12-29T11:56:16;100756.72;;;10.15;100.00
19777;BME280;10047;42.490;26.012;2022-12-29T11:58:42;100761.75;;;10.17;100.00
19777;BME280;10047;42.490;26.012;2022-12-29T12:04:01;100711.59;;;9.67;100.00
19777;BME280;10047;42.490;26.012;2022-12-29T12:06:28;100782.91;;;10.19;100.00
19777;BME280;10047;42.490;26.012;2022-12-29T12:09:00;100841.25;;;10.87;100.00
19777;BME280;10047;42.490;26.012;2022-12-29T12:11:34;100854.66;;;10.95;100.00
19777;BME280;10047;42.490;26.012;2022-12-29T12:14:18;100865.84;;;10.87;100.00
19777;BME280;10047;42.490;26.012;2022-12-29T12:17:09;100827.09;;;10.70;100.00
19777;BME280;10047;42.490;26.012;2022-12-29T12:19:45;100867.78;;;10.70;100.00
19777;BME280;10047;42.490;26.012;2022-12-29T12:22:51;100877.19;;;11.19;100.00
19777;BME280;10047;42.490;26.012;2022-12-29T12:25:37;100830.44;;;10.73;100.00
19777;BME280;10047;42.490;26.012;2022-12-29T12:28:11;100794.56;;;10.35;100.00
19777;BME280;10047;42.490;26.012;2022-12-29T12:30:48;100886.03;;;10.99;100.00
19777;BME280;10047;42.490;26.012;2022-12-29T12:58:10;100900.09;;;11.19;100.00
19777;BME280;10047;42.490;26.012;2022-12-29T13:17:17;100909.75;;;10.98;100.00
19777;BME280;10047;42.490;26.012;2022-12-29T13:22:43;100899.25;;;11.71;100.00
19777;BME280;10047;42.490;26.012;2022-12-29T13:25:28;100767.78;;;10.11;100.00
19777;BME280;10047;42.490;26.012;2022-12-29T13:28:07;100897.47;;;10.69;100.00
19777;BME280;10047;42.490;26.012;2022-12-29T13:30:43;100902.63;;;10.63;100.00
19777;BME280;10047;42.490;26.012;2022-12-29T13:33:53;100905.16;;;10.65;100.00
19777;BME280;10047;42.490;26.012;2022-12-29T13:38:50;100908.59;;;10.61;100.00
19777;BME280;10047;42.490;26.012;2022-12-29T13:41:44;100895.97;;;11.12;100.00
19777;BME280;10047;42.490;26.012;2022-12-29T13:44:18;100897.66;;;10.56;100.00
19777;BME280;10047;42.490;26.012;2022-12-29T13:46:46;100895.84;;;10.62;100.00
19777;BME280;10047;42.490;26.012;2022-12-29T13:51:43;100871.53;;;10.43;100.00
19777;BME280;10047;42.490;26.012;2022-12-29T13:57:06;100894.88;;;11.80;100.00
19777;BME280;10047;42.490;26.012;2022-12-29T13:59:57;100911.94;;;10.64;100.00
19777;BME280;10047;42.490;26.012;2022-12-29T14:05:01;100821.50;;;11.03;100.00
19777;BME280;10047;42.490;26.012;2022-12-29T14:07:28;100844.75;;;11.79;100.00
19777;BME280;10047;42.490;26.012;2022-12-29T14:09:56;100853.06;;;10.30;100.00
19777;BME280;10047;42.490;26.012;2022-12-29T14:15:15;100788.59;;;9.68;100.00
19777;BME280;10047;42.490;26.012;2022-12-29T14:18:10;100844.09;;;9.99;100.00
19777;BME280;10047;42.490;26.012;2022-12-29T14:20:39;100920.75;;;10.37;100.00
19777;BME280;10047;42.490;26.012;2022-12-29T14:25:59;100910.75;;;10.22;100.00
19777;BME280;10047;42.490;26.012;2022-12-29T14:28:30;100840.94;;;9.82;100.00
19777;BME280;10047;42.490;26.012;2022-12-29T14:30:59;100917.50;;;10.26;100.00
19777;BME280;10047;42.490;26.012;2022-12-29T14:33:28;100906.63;;;10.15;100.00
19777;BME280;10047;42.490;26.012;2022-12-29T14:35:54;100909.22;;;10.06;100.00
19777;BME280;10047;42.490;26.012;2022-12-29T14:38:26;100831.91;;;9.54;100.00
19777;BME280;10047;42.490;26.012;2022-12-29T14:40:53;100899.22;;;9.91;100.00
19777;BME280;10047;42.490;26.012;2022-12-29T14:43:38;100874.09;;;9.66;100.00
19777;BME280;10047;42.490;26.012;2022-12-29T14:46:07;100899.47;;;9.67;100.00
19777;BME280;10047;42.490;26.012;2022-12-29T14:48:37;100833.94;;;9.20;100.00
19777;BME280;10047;42.490;26.012;2022-12-29T14:51:18;100840.69;;;9.23;100.00
19777;BME280;10047;42.490;26.012;2022-12-29T14:53:47;100827.38;;;8.97;100.00
19777;BME280;10047;42.490;26.012;2022-12-29T14:56:24;100909.91;;;9.38;100.00